Terminal Aerodrome Forecast
Issued by NWS

Home | Current Version | Previous Version | Text Only | Print | Product List | Glossary Off
Versions: 1 2 3 4 5 6 7 8 9 10 11 12 13

898
FTUS42 KMHX 091721
TAFISO
TAF
KISO 091721Z 0918/1018 22011G15KT P6SM SCT025 OVC060
     FM100000 27005KT P6SM SCT050
      AMD LTD TO CLD VIS AND WIND=

USA.gov is the U.S. government's official web portal to all federal, state and local government web resources and services.